createdAt,value
2018-09-25T00:00:46.999Z,100.00
2018-09-25T00:03:21.993Z,100.00
2018-09-25T00:05:56.964Z,100.00
2018-09-25T00:08:32.001Z,100.00
2018-09-25T00:11:07.155Z,100.00
2018-09-25T00:13:43.404Z,100.00
2018-09-25T00:16:18.548Z,100.00
2018-09-25T00:18:53.572Z,100.00
2018-09-25T00:21:28.470Z,100.00
2018-09-25T00:24:03.209Z,100.00
2018-09-25T00:26:38.058Z,100.00
2018-09-25T00:29:14.022Z,100.00
2018-09-25T00:31:48.874Z,100.00
2018-09-25T00:34:24.181Z,100.00
2018-09-25T00:36:59.340Z,100.00
2018-09-25T00:39:35.225Z,100.00
2018-09-25T00:42:10.432Z,100.00
2018-09-25T00:44:45.492Z,100.00
2018-09-25T00:47:20.316Z,100.00
2018-09-25T00:49:56.263Z,100.00
2018-09-25T00:52:31.159Z,100.00
2018-09-25T00:55:06.231Z,100.00
2018-09-25T00:57:41.287Z,100.00
2018-09-25T01:00:16.267Z,100.00
2018-09-25T01:02:51.137Z,100.00
2018-09-25T01:05:26.078Z,100.00
2018-09-25T01:08:01.162Z,100.00
2018-09-25T01:10:36.402Z,100.00
2018-09-25T01:13:11.398Z,100.00
2018-09-25T01:15:46.621Z,100.00
2018-09-25T01:18:21.812Z,100.00
2018-09-25T01:20:56.710Z,100.00
2018-09-25T01:23:31.507Z,100.00
2018-09-25T01:26:08.285Z,100.00
2018-09-25T01:28:43.310Z,100.00
2018-09-25T01:31:18.048Z,100.00
2018-09-25T01:33:53.044Z,100.00
2018-09-25T01:36:27.925Z,100.00
2018-09-25T01:39:03.174Z,100.00
2018-09-25T01:41:37.965Z,100.00
2018-09-25T01:44:12.930Z,100.00
2018-09-25T01:46:48.772Z,100.00
2018-09-25T01:49:23.710Z,100.00
2018-09-25T01:51:59.885Z,100.00
2018-09-25T01:54:34.979Z,100.00
2018-09-25T01:57:09.908Z,100.00
2018-09-25T01:59:44.825Z,100.00
2018-09-25T02:02:19.963Z,100.00
2018-09-25T02:04:55.071Z,100.00
2018-09-25T02:07:33.346Z,100.00
2018-09-25T02:10:08.354Z,100.00
2018-09-25T02:12:44.268Z,100.00
2018-09-25T02:15:19.391Z,100.00
2018-09-25T02:17:54.744Z,100.00
2018-09-25T02:20:29.669Z,100.00
2018-09-25T02:23:04.617Z,100.00
2018-09-25T02:25:39.459Z,100.00
2018-09-25T02:28:14.795Z,100.00
2018-09-25T02:30:49.429Z,100.00
2018-09-25T02:33:25.477Z,100.00
2018-09-25T02:36:00.704Z,100.00
2018-09-25T02:38:35.521Z,100.00
2018-09-25T02:41:10.540Z,100.00
2018-09-25T02:43:45.621Z,100.00
2018-09-25T02:46:21.202Z,100.00
2018-09-25T02:48:57.348Z,100.00
2018-09-25T02:51:32.224Z,100.00
2018-09-25T02:54:07.790Z,100.00
2018-09-25T02:56:42.849Z,100.00
2018-09-25T02:59:19.029Z,100.00
2018-09-25T03:01:54.030Z,100.00
2018-09-25T03:04:29.090Z,100.00
2018-09-25T03:07:04.224Z,100.00
2018-09-25T03:09:39.068Z,100.00
2018-09-25T03:12:14.194Z,100.00
2018-09-25T03:14:49.100Z,100.00
2018-09-25T03:17:23.788Z,100.00
2018-09-25T03:19:59.299Z,100.00
2018-09-25T03:31:22.764Z,100.00
2018-09-25T03:33:57.979Z,100.00
2018-09-25T03:36:33.164Z,100.00
2018-09-25T03:39:08.295Z,100.00
2018-09-25T03:41:43.602Z,100.00
2018-09-25T03:44:18.644Z,100.00
2018-09-25T03:46:53.867Z,100.00
2018-09-25T03:49:29.526Z,100.00
2018-09-25T03:52:05.248Z,100.00
2018-09-25T03:54:40.073Z,100.00
2018-09-25T03:57:15.157Z,100.00
2018-09-25T03:59:50.662Z,100.00
2018-09-25T04:02:25.589Z,100.00
2018-09-25T04:05:00.755Z,100.00
2018-09-25T04:07:36.401Z,100.00
2018-09-25T04:10:11.788Z,100.00
2018-09-25T04:12:46.686Z,100.00
2018-09-25T04:15:22.707Z,100.00
2018-09-25T04:17:58.305Z,100.00
2018-09-25T04:20:33.225Z,100.00
2018-09-25T04:23:09.353Z,100.00
2018-09-25T04:25:44.373Z,100.00
2018-09-25T04:28:19.396Z,100.00
2018-09-25T04:30:54.496Z,100.00
2018-09-25T04:33:29.571Z,100.00
2018-09-25T04:36:04.557Z,100.00
2018-09-25T04:38:41.123Z,100.00
2018-09-25T04:41:16.406Z,100.00
2018-09-25T04:43:51.317Z,100.00
2018-09-25T04:46:26.833Z,100.00
2018-09-25T04:49:01.735Z,100.00
2018-09-25T04:51:36.737Z,100.00
2018-09-25T04:54:12.691Z,100.00
2018-09-25T04:56:47.702Z,100.00
2018-09-25T04:59:22.865Z,100.00
2018-09-25T05:01:57.652Z,100.00
2018-09-25T05:04:32.599Z,100.00
2018-09-25T05:07:07.851Z,100.00
2018-09-25T05:09:43.073Z,100.00
2018-09-25T05:12:18.259Z,100.00
2018-09-25T05:14:53.396Z,100.00
2018-09-25T05:17:28.451Z,100.00
2018-09-25T05:20:03.520Z,100.00
2018-09-25T05:22:38.589Z,100.00
2018-09-25T05:25:13.938Z,100.00
2018-09-25T05:27:49.541Z,100.00
2018-09-25T05:30:24.535Z,100.00
2018-09-25T05:32:59.851Z,100.00
2018-09-25T05:35:35.005Z,100.00
2018-09-25T05:38:09.967Z,100.00
2018-09-25T05:40:45.167Z,100.00
2018-09-25T05:43:21.161Z,100.00
2018-09-25T05:45:56.092Z,100.00
2018-09-25T05:48:31.158Z,100.00
2018-09-25T05:51:06.956Z,100.00
2018-09-25T05:53:41.891Z,100.00
2018-09-25T05:56:17.606Z,100.00
2018-09-25T05:58:52.371Z,100.00
2018-09-25T06:01:27.448Z,100.00
2018-09-25T06:04:02.413Z,99.57
2018-09-25T06:06:37.343Z,99.79
2018-09-25T06:09:14.215Z,98.06
2018-09-25T06:11:49.363Z,96.07
2018-09-25T06:14:25.351Z,97.47
2018-09-25T06:17:01.061Z,95.86
2018-09-25T06:19:35.876Z,94.87
2018-09-25T06:22:10.905Z,95.49
2018-09-25T06:24:45.863Z,94.85
2018-09-25T06:27:20.895Z,93.98
2018-09-25T06:29:56.181Z,91.50
2018-09-25T06:32:32.077Z,90.24
2018-09-25T06:35:07.058Z,87.80
2018-09-25T06:37:42.078Z,86.37
2018-09-25T06:40:17.775Z,84.54
2018-09-25T06:42:53.509Z,84.78
2018-09-25T06:45:31.631Z,81.95
2018-09-25T06:48:06.877Z,80.78
2018-09-25T06:50:42.209Z,81.26
2018-09-25T06:53:17.816Z,80.46
2018-09-25T06:55:53.101Z,80.70
2018-09-25T06:58:28.221Z,82.00
2018-09-25T07:01:04.518Z,82.71
2018-09-25T07:03:39.471Z,84.39
2018-09-25T07:06:15.509Z,84.27
2018-09-25T07:11:30.754Z,80.37
2018-09-25T07:14:05.834Z,76.21
2018-09-25T07:16:40.766Z,75.38
2018-09-25T07:19:15.859Z,73.31
2018-09-25T07:21:50.924Z,72.77
2018-09-25T07:24:25.949Z,73.25
2018-09-25T07:27:01.258Z,72.46
2018-09-25T07:29:36.215Z,71.84
2018-09-25T07:32:11.284Z,64.19
2018-09-25T07:34:49.365Z,61.75
2018-09-25T07:37:24.141Z,63.54
2018-09-25T07:39:59.428Z,68.45
2018-09-25T07:42:34.398Z,66.46
2018-09-25T07:45:09.422Z,66.98
2018-09-25T07:47:44.352Z,68.83
2018-09-25T07:50:19.409Z,67.53
2018-09-25T07:52:54.518Z,64.54
2018-09-25T07:55:30.437Z,65.74
2018-09-25T07:58:06.101Z,64.41
2018-09-25T08:00:40.812Z,65.71
2018-09-25T08:03:15.915Z,65.60
2018-09-25T08:05:51.032Z,66.74
2018-09-25T08:08:25.989Z,66.19
2018-09-25T08:11:01.023Z,64.29
2018-09-25T08:13:35.910Z,66.84
2018-09-25T08:16:10.826Z,61.56
2018-09-25T08:18:46.111Z,64.58
2018-09-25T08:21:20.934Z,68.14
2018-09-25T08:23:55.856Z,67.57
2018-09-25T08:26:30.599Z,66.06
2018-09-25T08:29:06.460Z,63.40
2018-09-25T08:31:41.592Z,60.99
2018-09-25T08:34:16.622Z,61.73
2018-09-25T08:36:51.486Z,59.90
2018-09-25T08:39:27.057Z,59.95
2018-09-25T08:42:02.857Z,58.72
2018-09-25T08:44:37.810Z,58.17
2018-09-25T08:47:12.962Z,58.32
2018-09-25T08:49:48.054Z,61.51
2018-09-25T08:52:22.833Z,60.47
2018-09-25T08:54:58.983Z,60.79
2018-09-25T08:57:33.979Z,65.54
2018-09-25T09:00:09.796Z,65.75
2018-09-25T09:02:44.931Z,63.63
2018-09-25T09:05:20.704Z,61.93
2018-09-25T09:07:55.448Z,57.40
2018-09-25T09:10:33.506Z,54.95
2018-09-25T09:13:08.387Z,52.60
2018-09-25T09:15:43.542Z,53.89
2018-09-25T09:18:18.428Z,53.87
2018-09-25T09:20:53.208Z,56.38
2018-09-25T09:23:28.141Z,56.96
2018-09-25T09:26:03.118Z,56.36
2018-09-25T09:28:38.026Z,58.71
2018-09-25T09:31:13.080Z,58.48
2018-09-25T09:33:47.868Z,58.99
2018-09-25T09:36:23.760Z,60.19
2018-09-25T09:38:58.622Z,60.42
2018-09-25T09:41:33.475Z,59.32
2018-09-25T09:44:08.403Z,56.32
2018-09-25T09:46:43.708Z,57.30
2018-09-25T09:49:19.030Z,54.02
2018-09-25T09:51:53.878Z,52.71
2018-09-25T09:54:28.581Z,54.96
2018-09-25T09:57:05.008Z,55.06
2018-09-25T09:59:39.905Z,56.15
2018-09-25T10:02:14.944Z,58.86
2018-09-25T10:04:49.655Z,56.83
2018-09-25T10:07:25.025Z,55.64
2018-09-25T10:10:00.116Z,56.52
2018-09-25T10:12:36.163Z,55.42
2018-09-25T10:15:11.060Z,54.13
2018-09-25T10:17:45.974Z,54.06
2018-09-25T10:20:21.641Z,55.05
2018-09-25T10:22:56.560Z,56.60
2018-09-25T10:25:31.520Z,55.53
2018-09-25T10:28:06.286Z,52.95
2018-09-25T10:30:41.049Z,53.04
2018-09-25T10:33:15.964Z,54.58
2018-09-25T10:35:50.671Z,56.65
2018-09-25T10:38:25.603Z,58.00
2018-09-25T10:41:01.126Z,59.60
2018-09-25T10:43:36.229Z,59.57
2018-09-25T10:46:11.604Z,59.83
2018-09-25T10:48:47.332Z,59.75
2018-09-25T10:51:22.506Z,59.56
2018-09-25T10:53:58.655Z,58.56
2018-09-25T10:56:37.156Z,59.67
2018-09-25T10:59:13.074Z,58.70
2018-09-25T11:01:47.799Z,60.42
2018-09-25T11:04:22.974Z,62.59
2018-09-25T11:06:57.658Z,64.72
2018-09-25T11:09:32.675Z,65.62
2018-09-25T11:12:07.791Z,65.05
2018-09-25T11:14:42.619Z,64.99
2018-09-25T11:17:17.416Z,66.08
2018-09-25T11:19:52.456Z,66.41
2018-09-25T11:22:27.257Z,65.14
2018-09-25T11:25:02.657Z,64.35
2018-09-25T11:27:37.841Z,62.10
2018-09-25T11:30:13.088Z,60.81
2018-09-25T11:32:48.163Z,59.44
2018-09-25T11:35:23.168Z,58.16
2018-09-25T11:37:58.042Z,58.50
2018-09-25T11:40:32.941Z,57.70
2018-09-25T11:43:07.947Z,60.05
2018-09-25T11:45:42.965Z,62.26
2018-09-25T11:48:18.085Z,63.89
2018-09-25T11:50:53.319Z,64.83
2018-09-25T11:53:28.205Z,65.58
2018-09-25T11:56:03.461Z,66.06
2018-09-25T11:58:38.461Z,67.37
2018-09-25T12:01:13.371Z,68.01
2018-09-25T12:03:49.413Z,67.81
2018-09-25T12:06:24.665Z,63.20
2018-09-25T12:08:59.813Z,62.08
2018-09-25T12:11:35.301Z,60.15
2018-09-25T12:14:10.121Z,60.94
2018-09-25T12:16:45.308Z,58.92
2018-09-25T12:19:20.100Z,58.52
2018-09-25T12:21:55.045Z,57.09
2018-09-25T12:24:30.742Z,56.23
2018-09-25T12:27:05.794Z,55.69
2018-09-25T12:29:40.724Z,54.51
2018-09-25T12:32:16.383Z,55.79
2018-09-25T12:34:51.289Z,56.74
2018-09-25T12:37:27.028Z,54.55
2018-09-25T12:40:02.720Z,54.85
2018-09-25T12:42:37.817Z,55.92
2018-09-25T12:45:13.963Z,56.71
2018-09-25T12:47:48.934Z,56.14
2018-09-25T12:50:23.979Z,55.49
2018-09-25T12:52:58.923Z,57.25
2018-09-25T12:55:33.785Z,58.83
2018-09-25T13:01:11.451Z,61.05
2018-09-25T13:03:46.488Z,59.22
2018-09-25T13:06:21.502Z,59.08
2018-09-25T13:08:56.440Z,59.16
2018-09-25T13:11:32.149Z,58.12
2018-09-25T13:14:08.021Z,54.63
2018-09-25T13:16:43.113Z,55.44
2018-09-25T13:19:21.720Z,54.90
2018-09-25T13:21:56.757Z,53.92
2018-09-25T13:24:32.657Z,53.85
2018-09-25T13:27:07.563Z,53.45
2018-09-25T13:29:42.685Z,53.27
2018-09-25T13:32:17.822Z,53.54
2018-09-25T13:34:52.736Z,52.41
2018-09-25T13:37:27.444Z,52.20
2018-09-25T13:40:02.267Z,51.50
2018-09-25T13:42:37.295Z,51.22
2018-09-25T13:45:12.490Z,50.07
2018-09-25T13:47:47.458Z,50.54
2018-09-25T13:50:22.424Z,50.70
2018-09-25T13:52:57.548Z,51.35
2018-09-25T13:55:32.555Z,50.37
2018-09-25T13:58:08.798Z,50.70
2018-09-25T14:00:45.282Z,49.96
2018-09-25T14:03:20.681Z,48.75
2018-09-25T14:05:55.711Z,48.74
2018-09-25T14:08:30.743Z,50.12
2018-09-25T14:11:05.863Z,51.20
2018-09-25T14:13:40.661Z,50.78
2018-09-25T14:16:16.578Z,50.99
2018-09-25T14:18:51.359Z,50.27
2018-09-25T14:21:26.622Z,49.94
2018-09-25T14:24:02.185Z,48.30
2018-09-25T14:26:37.233Z,47.59
2018-09-25T14:29:13.183Z,47.68
2018-09-25T14:31:48.213Z,47.22
2018-09-25T14:34:25.144Z,47.54
2018-09-25T14:37:00.254Z,46.88
2018-09-25T14:39:36.482Z,45.64
2018-09-25T14:42:12.786Z,46.18
2018-09-25T14:44:49.175Z,45.83
2018-09-25T14:47:24.210Z,45.64
2018-09-25T14:49:59.151Z,43.71
2018-09-25T14:52:34.052Z,44.71
2018-09-25T14:55:09.131Z,43.79
2018-09-25T14:57:44.150Z,43.64
2018-09-25T15:00:19.772Z,42.09
2018-09-25T15:02:55.112Z,41.31
2018-09-25T15:05:30.220Z,41.72
2018-09-25T15:08:05.377Z,42.44
2018-09-25T15:10:40.608Z,43.06
2018-09-25T15:13:16.602Z,44.13
2018-09-25T15:15:51.653Z,45.57
2018-09-25T15:18:27.681Z,44.74
2018-09-25T15:21:04.015Z,45.80
2018-09-25T15:23:39.141Z,45.95
2018-09-25T15:26:14.758Z,45.83
2018-09-25T15:28:49.898Z,45.92
2018-09-25T15:31:25.854Z,46.13
2018-09-25T15:34:00.910Z,46.32
2018-09-25T15:36:36.131Z,46.18
2018-09-25T15:39:13.311Z,46.45
2018-09-25T15:41:48.461Z,47.44
2018-09-25T15:44:23.473Z,47.74
2018-09-25T15:46:58.696Z,48.09
2018-09-25T15:49:33.718Z,48.85
2018-09-25T15:52:08.729Z,49.72
2018-09-25T15:54:43.874Z,50.39
2018-09-25T15:57:19.048Z,51.05
2018-09-25T15:59:54.012Z,51.77
2018-09-25T16:02:29.043Z,52.38
2018-09-25T16:05:05.208Z,53.03
2018-09-25T16:07:40.373Z,53.31
2018-09-25T16:10:15.243Z,54.48
2018-09-25T16:12:51.309Z,55.15
2018-09-25T16:15:27.192Z,55.22
2018-09-25T16:18:02.145Z,55.16
2018-09-25T16:20:37.328Z,54.75
2018-09-25T16:23:12.884Z,54.29
2018-09-25T16:25:47.964Z,55.52
2018-09-25T16:28:22.994Z,55.86
2018-09-25T16:30:57.956Z,55.57
2018-09-25T16:33:34.030Z,55.56
2018-09-25T16:36:08.975Z,56.16
2018-09-25T16:38:44.156Z,56.49
2018-09-25T16:41:19.397Z,56.30
2018-09-25T16:43:54.846Z,56.64
2018-09-25T16:46:30.106Z,56.87
2018-09-25T16:49:06.238Z,56.42
2018-09-25T16:51:42.710Z,57.71
2018-09-25T16:54:17.869Z,57.51
2018-09-25T16:56:53.283Z,57.81
2018-09-25T16:59:28.652Z,57.97
2018-09-25T17:02:04.365Z,59.22
2018-09-25T17:04:39.476Z,59.47
2018-09-25T17:07:16.045Z,59.51
2018-09-25T17:09:52.044Z,59.60
2018-09-25T17:12:28.046Z,59.72
2018-09-25T17:15:03.356Z,60.64
2018-09-25T17:17:39.132Z,61.53
2018-09-25T17:20:14.455Z,62.04
2018-09-25T17:22:51.663Z,62.49
2018-09-25T17:25:28.761Z,63.51
2018-09-25T17:28:04.254Z,64.00
2018-09-25T17:30:39.153Z,64.63
2018-09-25T17:33:14.399Z,65.68
2018-09-25T17:35:50.179Z,66.47
2018-09-25T17:38:25.746Z,67.51
2018-09-25T17:41:01.173Z,68.05
2018-09-25T17:43:37.368Z,68.56
2018-09-25T17:46:12.686Z,69.00
2018-09-25T17:48:51.924Z,69.30
2018-09-25T17:51:29.040Z,69.13
2018-09-25T17:54:04.916Z,69.05
2018-09-25T17:56:41.018Z,69.25
2018-09-25T17:59:16.893Z,69.19
2018-09-25T18:01:52.312Z,69.34
2018-09-25T18:04:27.602Z,69.22
2018-09-25T18:07:03.808Z,69.52
2018-09-25T18:09:39.163Z,69.88
2018-09-25T18:12:14.317Z,69.33
2018-09-25T18:14:49.524Z,69.12
2018-09-25T18:17:25.188Z,69.24
2018-09-25T18:20:00.108Z,69.15
2018-09-25T18:22:35.714Z,69.72
2018-09-25T18:25:10.866Z,69.36
2018-09-25T18:27:46.600Z,69.48
2018-09-25T18:30:21.838Z,69.58
2018-09-25T18:32:57.451Z,69.96
2018-09-25T18:35:32.924Z,69.28
2018-09-25T18:38:08.982Z,68.58
2018-09-25T18:40:44.023Z,67.77
2018-09-25T18:43:23.022Z,67.43
2018-09-25T18:45:59.698Z,66.83
2018-09-25T18:48:34.825Z,66.48
2018-09-25T18:51:11.506Z,66.65
2018-09-25T18:53:49.312Z,66.44
2018-09-25T18:56:24.164Z,67.11
2018-09-25T18:58:59.334Z,67.33
2018-09-25T19:01:35.339Z,68.06
2018-09-25T19:04:17.057Z,68.47
2018-09-25T19:06:52.908Z,68.77
2018-09-25T19:09:28.169Z,69.72
2018-09-25T19:12:03.420Z,70.28
2018-09-25T19:14:38.525Z,70.55
2018-09-25T19:17:13.676Z,71.09
2018-09-25T19:19:48.886Z,70.82
2018-09-25T19:22:24.184Z,71.09
2018-09-25T19:24:59.524Z,70.88
2018-09-25T19:27:34.775Z,70.37
2018-09-25T19:30:10.354Z,70.57
2018-09-25T19:32:45.979Z,70.48
2018-09-25T19:35:21.224Z,70.89
2018-09-25T19:37:56.187Z,70.39
2018-09-25T19:40:31.002Z,70.23
2018-09-25T19:43:06.568Z,69.82
2018-09-25T19:45:42.601Z,69.72
2018-09-25T19:48:19.377Z,69.12
2018-09-25T19:50:56.077Z,69.20
2018-09-25T19:53:31.580Z,68.94
2018-09-25T19:56:06.882Z,68.46
2018-09-25T19:58:41.871Z,68.94
2018-09-25T20:01:17.034Z,68.90
2018-09-25T20:03:51.981Z,69.01
2018-09-25T20:06:27.754Z,69.25
2018-09-25T20:09:02.743Z,69.96
2018-09-25T20:11:37.603Z,69.42
2018-09-25T20:14:12.707Z,69.64
2018-09-25T20:16:47.965Z,69.77
2018-09-25T20:19:22.897Z,69.69
2018-09-25T20:21:58.250Z,69.57
2018-09-25T20:24:33.132Z,69.83
2018-09-25T20:27:08.222Z,69.64
2018-09-25T20:29:43.284Z,70.11
2018-09-25T20:32:19.725Z,70.57
2018-09-25T20:34:55.070Z,70.38
2018-09-25T20:37:30.864Z,70.99
2018-09-25T20:40:05.861Z,71.43
2018-09-25T20:42:40.765Z,71.75
2018-09-25T20:45:15.784Z,72.03
2018-09-25T20:47:51.130Z,72.12
2018-09-25T20:50:26.008Z,71.89
2018-09-25T20:53:01.140Z,72.03
2018-09-25T20:55:36.205Z,72.15
2018-09-25T20:58:11.124Z,71.80
2018-09-25T21:00:45.893Z,71.84
2018-09-25T21:03:20.844Z,71.57
2018-09-25T21:05:55.805Z,72.11
2018-09-25T21:08:30.753Z,71.35
2018-09-25T21:11:05.642Z,70.82
2018-09-25T21:13:40.894Z,69.47
2018-09-25T21:17:44.832Z,69.51
2018-09-25T21:20:20.291Z,69.39
2018-09-25T21:22:56.137Z,69.53
2018-09-25T21:25:32.053Z,68.14
2018-09-25T21:28:07.057Z,68.97
2018-09-25T21:30:42.423Z,68.54
2018-09-25T21:33:18.364Z,69.32
2018-09-25T21:35:53.311Z,69.23
2018-09-25T21:38:28.268Z,67.23
2018-09-25T21:41:04.329Z,66.91
2018-09-25T21:43:40.542Z,66.99
2018-09-25T21:46:15.763Z,66.63
2018-09-25T21:48:50.701Z,66.45
2018-09-25T21:51:26.131Z,67.43
2018-09-25T21:54:00.868Z,67.97
2018-09-25T21:56:36.193Z,68.16
2018-09-25T21:59:11.123Z,68.76
2018-09-25T22:01:47.107Z,68.77
2018-09-25T22:04:22.382Z,69.35
2018-09-25T22:06:57.573Z,69.38
2018-09-25T22:09:32.599Z,69.49
2018-09-25T22:12:07.757Z,69.95
2018-09-25T22:14:42.512Z,70.57
2018-09-25T22:17:17.857Z,70.93
2018-09-25T22:19:53.073Z,70.90
2018-09-25T22:22:28.838Z,71.29
2018-09-25T22:25:03.960Z,71.45
2018-09-25T22:27:38.977Z,71.26
2018-09-25T22:30:14.021Z,71.26
2018-09-25T22:32:49.418Z,71.52
2018-09-25T22:35:24.277Z,72.03
2018-09-25T22:37:59.410Z,71.54
2018-09-25T22:40:34.515Z,72.82
2018-09-25T22:43:10.587Z,72.58
2018-09-25T22:45:45.355Z,72.76
2018-09-25T22:48:21.037Z,73.02
2018-09-25T22:54:12.121Z,72.92
2018-09-25T22:56:48.085Z,72.93
2018-09-25T22:59:23.231Z,73.17
2018-09-25T23:01:58.166Z,73.10
2018-09-25T23:04:33.763Z,73.26
2018-09-25T23:07:09.146Z,73.30
2018-09-25T23:09:44.736Z,73.29
2018-09-25T23:12:20.065Z,73.44
2018-09-25T23:14:55.110Z,73.89
2018-09-25T23:17:31.763Z,73.74
2018-09-25T23:20:08.881Z,74.19
2018-09-25T23:22:43.852Z,74.23
2018-09-25T23:25:19.227Z,74.34
2018-09-25T23:27:55.222Z,74.14
2018-09-25T23:30:30.023Z,74.68
2018-09-25T23:33:05.078Z,74.90
2018-09-25T23:35:40.315Z,75.00
2018-09-25T23:38:15.656Z,75.20
2018-09-25T23:41:22.335Z,75.46
2018-09-25T23:43:58.045Z,74.78
2018-09-25T23:46:35.069Z,74.72
2018-09-25T23:49:25.066Z,74.94
2018-09-25T23:52:06.090Z,74.98
2018-09-25T23:54:41.316Z,74.47
2018-09-25T23:57:15.600Z,74.89
